Time;durP1;ratioP1;P1;durP2;ratioP2;P2;SDS_P1;SDS_P2;PMS_P1;PMS_P2;Temp;Humidity;BMP_temperature;BMP_pressure;BME280_temperature;BME280_humidity;BME280_pressure;Samples;Min_cycle;Max_cycle;Signal;HPM_P1;HPM_P2
2022/12/24 00:02:14;;;;;;;19.73;8.15;;;9.20;99.90;;;;;;5115926;27;20036;-63
2022/12/24 00:04:39;;;;;;;19.08;8.13;;;9.20;99.90;;;;;;5125182;27;20054;-64
2022/12/24 00:07:05;;;;;;;19.33;7.72;;;9.20;99.90;;;;;;5122983;27;20036;-63
2022/12/24 00:09:30;;;;;;;14.07;6.88;;;9.20;99.90;;;;;;5123926;27;20047;-63
2022/12/24 00:11:56;;;;;;;18.55;7.10;;;9.20;99.90;;;;;;5128490;27;20062;-64
2022/12/24 00:14:22;;;;;;;10.05;6.68;;;9.20;99.90;;;;;;5101417;27;20039;-66
2022/12/24 00:16:47;;;;;;;11.35;5.85;;;9.20;99.90;;;;;;5115946;27;20036;-63
2022/12/24 00:19:13;;;;;;;13.60;7.05;;;9.20;99.90;;;;;;5111975;27;20032;-64
2022/12/24 00:21:38;;;;;;;16.45;7.00;;;9.20;99.90;;;;;;5133108;27;20042;-64
2022/12/24 00:24:04;;;;;;;13.95;6.32;;;9.10;99.90;;;;;;5099708;27;20501;-64
2022/12/24 00:26:34;;;;;;;13.68;6.13;;;9.20;99.90;;;;;;5109893;27;20043;-65
2022/12/24 00:28:59;;;;;;;13.65;5.25;;;9.10;99.90;;;;;;5123431;27;20511;-63
2022/12/24 00:31:28;;;;;;;10.20;5.07;;;9.10;99.90;;;;;;5119696;27;20106;-64
2022/12/24 00:33:54;;;;;;;11.18;5.68;;;9.20;99.90;;;;;;5104145;27;20039;-63
2022/12/24 00:36:20;;;;;;;11.18;5.40;;;9.20;99.90;;;;;;5116175;27;20035;-63
2022/12/24 00:38:46;;;;;;;14.65;7.07;;;9.10;99.90;;;;;;5118334;27;20123;-63
2022/12/24 00:41:24;;;;;;;11.52;5.45;;;9.20;99.90;;;;;;5118201;27;20470;-63
2022/12/24 00:44:02;;;;;;;10.25;5.15;;;9.10;99.90;;;;;;5117880;27;20037;-63
2022/12/24 00:46:30;;;;;;;9.35;5.00;;;9.10;99.90;;;;;;5126262;27;20147;-64
2022/12/24 00:48:56;;;;;;;13.00;4.63;;;9.10;99.90;;;;;;5126956;27;20435;-64
2022/12/24 00:51:23;;;;;;;10.73;5.05;;;9.10;99.90;;;;;;5123798;27;20041;-64
2022/12/24 00:53:49;;;;;;;10.63;5.03;;;9.10;99.90;;;;;;5124493;27;20512;-63
2022/12/24 00:56:14;;;;;;;12.48;4.88;;;9.10;99.90;;;;;;5123962;27;20069;-63
2022/12/24 00:58:40;;;;;;;11.73;5.45;;;9.10;99.90;;;;;;5105144;27;20514;-63
2022/12/24 01:01:06;;;;;;;13.80;5.70;;;9.10;99.90;;;;;;5110450;28;20406;-64
2022/12/24 01:03:34;;;;;;;12.02;5.97;;;9.20;99.90;;;;;;5125701;27;20403;-64
2022/12/24 01:06:06;;;;;;;11.50;5.95;;;9.10;99.90;;;;;;5128054;27;20037;-63
2022/12/24 01:08:32;;;;;;;12.75;6.28;;;9.10;99.90;;;;;;5131590;27;20366;-64
2022/12/24 01:10:58;;;;;;;10.95;5.80;;;9.20;99.90;;;;;;5105662;27;20079;-64
2022/12/24 01:13:24;;;;;;;13.75;5.78;;;9.20;99.90;;;;;;5096357;28;20083;-64
2022/12/24 01:15:50;;;;;;;10.27;5.50;;;9.30;99.90;;;;;;5125612;27;20085;-63
2022/12/24 01:18:16;;;;;;;8.10;4.45;;;9.20;99.90;;;;;;5105895;27;20032;-64
2022/12/24 01:20:42;;;;;;;9.55;4.55;;;9.20;99.90;;;;;;5104546;28;20436;-66
2022/12/24 01:23:07;;;;;;;10.38;4.22;;;9.20;99.90;;;;;;5120785;27;20035;-63
2022/12/24 01:25:33;;;;;;;9.48;4.35;;;9.20;99.90;;;;;;5107783;27;20085;-63
2022/12/24 01:27:59;;;;;;;8.63;3.58;;;9.20;99.90;;;;;;5130602;27;20039;-64
2022/12/24 01:30:24;;;;;;;8.38;3.15;;;9.20;99.90;;;;;;5130499;27;20091;-62
2022/12/24 01:32:50;;;;;;;9.85;2.90;;;9.20;99.90;;;;;;5109637;27;20400;-65
2022/12/24 01:35:15;;;;;;;12.00;2.95;;;9.20;99.90;;;;;;5083260;28;20224;-63
2022/12/24 01:37:42;;;;;;;9.73;3.35;;;9.20;99.90;;;;;;5106950;27;20046;-64
2022/12/24 01:45:48;;;;;;;28.98;5.40;;;9.20;99.90;;;;;;5121862;27;20122;-66
2022/12/24 01:48:20;;;;;;;35.43;5.87;;;9.20;99.90;;;;;;5119209;27;20043;-63
2022/12/24 01:50:46;;;;;;;34.08;5.32;;;9.10;99.90;;;;;;5120842;27;20058;-63
2022/12/24 01:53:14;;;;;;;33.90;5.68;;;9.10;99.90;;;;;;5108252;28;20481;-63
2022/12/24 01:55:41;;;;;;;37.75;4.85;;;9.10;99.90;;;;;;5108795;28;20043;-63
2022/12/24 01:58:08;;;;;;;25.13;4.88;;;9.10;99.90;;;;;;5128251;27;20048;-63
2022/12/24 02:00:34;;;;;;;32.67;5.63;;;9.10;99.90;;;;;;5095751;27;20043;-64
2022/12/24 02:03:00;;;;;;;42.95;5.70;;;9.10;99.90;;;;;;5122311;27;20039;-64
2022/12/24 02:05:52;;;;;;;29.88;5.63;;;9.00;99.90;;;;;;5104804;27;20035;-64
2022/12/24 02:08:18;;;;;;;38.33;5.57;;;9.00;99.90;;;;;;5108003;28;20041;-64
2022/12/24 02:10:46;;;;;;;42.80;5.88;;;9.00;99.90;;;;;;5125757;28;20070;-64
2022/12/24 02:13:13;;;;;;;33.70;5.38;;;9.00;99.90;;;;;;5121950;28;20114;-63
2022/12/24 02:16:03;;;;;;;34.20;6.40;;;9.00;99.90;;;;;;5125200;28;20382;-66
2022/12/24 02:18:39;;;;;;;40.35;6.28;;;9.00;99.90;;;;;;5125268;28;20303;-62
2022/12/24 02:21:27;;;;;;;27.60;5.18;;;9.00;99.90;;;;;;5106556;28;20047;-63
2022/12/24 02:24:10;;;;;;;41.95;5.82;;;9.00;99.90;;;;;;5109528;28;20047;-63
2022/12/24 02:26:52;;;;;;;28.27;4.80;;;9.10;99.90;;;;;;5119386;28;20481;-65
2022/12/24 02:29:18;;;;;;;29.95;4.63;;;9.10;99.90;;;;;;5103554;28;20035;-64
2022/12/24 02:31:49;;;;;;;32.70;5.28;;;9.10;99.90;;;;;;5119640;28;20132;-65
2022/12/24 02:34:25;;;;;;;28.55;5.70;;;9.20;99.90;;;;;;5123824;28;20114;-64
2022/12/24 02:37:05;;;;;;;31.73;5.65;;;9.20;99.90;;;;;;5129914;28;20050;-62
2022/12/24 02:39:49;;;;;;;35.92;5.45;;;9.30;99.90;;;;;;5127865;28;20054;-64
2022/12/24 02:42:21;;;;;;;23.65;5.38;;;9.30;99.90;;;;;;5121753;28;20046;-64
2022/12/24 02:44:54;;;;;;;33.38;5.03;;;9.30;99.90;;;;;;5123753;28;20541;-65
2022/12/24 02:47:23;;;;;;;33.88;6.00;;;9.30;99.90;;;;;;5102929;28;20769;-64
2022/12/24 02:49:49;;;;;;;35.50;5.65;;;9.30;99.90;;;;;;5127041;27;20043;-67
2022/12/24 02:52:33;;;;;;;27.98;5.43;;;9.30;99.90;;;;;;5112515;27;20138;-64
2022/12/24 02:55:02;;;;;;;27.45;4.78;;;9.30;99.90;;;;;;5133375;27;20554;-64
2022/12/24 02:57:48;;;;;;;34.72;5.18;;;9.30;99.90;;;;;;5107256;27;20478;-64
2022/12/24 03:00:17;;;;;;;39.50;5.47;;;9.30;99.90;;;;;;5085160;27;20528;-64
2022/12/24 03:02:49;;;;;;;36.92;5.55;;;9.30;99.90;;;;;;5134138;27;20106;-64
2022/12/24 03:05:37;;;;;;;34.95;6.38;;;9.30;99.90;;;;;;5119426;27;20043;-62
2022/12/24 03:08:06;;;;;;;41.58;5.57;;;9.20;99.90;;;;;;5104492;27;20122;-64
2022/12/24 03:10:51;;;;;;;35.85;5.30;;;9.20;99.90;;;;;;5127672;27;20035;-64
2022/12/24 03:13:19;;;;;;;37.45;5.47;;;9.20;99.90;;;;;;5129456;27;20487;-64
2022/12/24 03:15:46;;;;;;;31.60;6.15;;;9.20;99.90;;;;;;5116893;27;20036;-63
2022/12/24 03:18:15;;;;;;;36.22;5.88;;;9.20;99.90;;;;;;5121965;27;20028;-64
2022/12/24 03:20:44;;;;;;;41.47;6.40;;;9.20;99.90;;;;;;5098042;28;20071;-63
2022/12/24 03:23:11;;;;;;;35.92;5.68;;;9.20;99.90;;;;;;5123683;27;20115;-64
2022/12/24 03:25:39;;;;;;;35.10;6.43;;;9.20;99.90;;;;;;5107997;28;20040;-65
2022/12/24 03:28:07;;;;;;;38.80;5.68;;;9.20;99.90;;;;;;5124845;27;20051;-64
2022/12/24 03:30:33;;;;;;;37.50;6.35;;;9.20;99.90;;;;;;5115418;27;20043;-64
2022/12/24 03:32:59;;;;;;;40.92;5.55;;;9.20;99.90;;;;;;5112499;27;20042;-64
2022/12/24 03:35:24;;;;;;;31.15;6.10;;;9.20;99.90;;;;;;5133286;27;20028;-65
2022/12/24 03:37:50;;;;;;;30.60;5.05;;;9.20;99.90;;;;;;5129813;27;20035;-64
2022/12/24 03:40:16;;;;;;;45.40;5.57;;;9.20;99.90;;;;;;5129994;27;20452;-64
2022/12/24 03:42:42;;;;;;;37.65;6.28;;;9.20;99.90;;;;;;5124527;27;20035;-64
2022/12/24 03:45:08;;;;;;;41.28;5.55;;;9.20;99.90;;;;;;5119390;27;20035;-62
2022/12/24 03:47:34;;;;;;;41.35;5.78;;;9.20;99.90;;;;;;5133382;27;20444;-64
2022/12/24 03:49:59;;;;;;;34.55;5.35;;;9.20;99.90;;;;;;5104783;27;20225;-65
2022/12/24 03:52:25;;;;;;;35.20;4.88;;;9.20;99.90;;;;;;5131029;27;20083;-65
2022/12/24 03:54:51;;;;;;;37.58;6.32;;;9.50;99.90;;;;;;5132096;27;20039;-64
2022/12/24 03:57:16;;;;;;;39.72;5.90;;;9.20;99.90;;;;;;5129717;27;20418;-64
2022/12/24 03:59:42;;;;;;;37.60;6.20;;;9.20;99.90;;;;;;5132952;27;20509;-64
2022/12/24 04:02:07;;;;;;;35.83;5.72;;;9.20;99.90;;;;;;5122375;27;20266;-65
2022/12/24 04:04:35;;;;;;;32.30;6.07;;;9.10;99.90;;;;;;5130141;27;20104;-64
2022/12/24 04:07:01;;;;;;;37.03;5.47;;;9.20;99.90;;;;;;5130675;27;20035;-64
2022/12/24 04:09:27;;;;;;;32.28;5.90;;;9.20;99.90;;;;;;5122303;27;20569;-64
2022/12/24 04:11:52;;;;;;;38.08;5.28;;;9.10;99.90;;;;;;5114577;27;20071;-63
2022/12/24 04:14:18;;;;;;;35.95;5.47;;;9.20;99.90;;;;;;5105493;27;20039;-64
2022/12/24 04:16:43;;;;;;;29.38;4.82;;;9.10;99.90;;;;;;5130363;27;20442;-65
2022/12/24 04:19:09;;;;;;;39.92;5.65;;;9.10;99.90;;;;;;5131453;27;20493;-64
2022/12/24 04:21:35;;;;;;;22.65;4.93;;;9.10;99.90;;;;;;5132384;27;20039;-63
2022/12/24 04:24:00;;;;;;;31.67;5.38;;;9.20;99.90;;;;;;5121600;27;20070;-64
2022/12/24 04:26:26;;;;;;;43.33;6.70;;;9.20;99.90;;;;;;5115029;27;20039;-64
2022/12/24 04:28:52;;;;;;;42.03;5.55;;;9.20;99.90;;;;;;5124463;27;20038;-64
2022/12/24 04:31:18;;;;;;;37.03;6.45;;;9.20;99.90;;;;;;5120605;27;20043;-64
2022/12/24 04:33:44;;;;;;;38.35;6.13;;;9.10;99.90;;;;;;5104286;27;20122;-64
2022/12/24 04:36:13;;;;;;;39.30;6.80;;;9.20;99.90;;;;;;5113124;27;20557;-65
2022/12/24 04:38:38;;;;;;;41.72;5.28;;;9.20;99.90;;;;;;5121405;27;20386;-65
2022/12/24 04:41:16;;;;;;;40.25;6.35;;;9.10;99.90;;;;;;5132510;27;20046;-64
2022/12/24 04:43:42;;;;;;;35.05;5.88;;;9.20;99.90;;;;;;5132118;27;20031;-64
2022/12/24 04:46:10;;;;;;;43.97;6.55;;;9.20;99.90;;;;;;5127310;27;20035;-64
2022/12/24 04:48:36;;;;;;;33.92;6.03;;;9.20;99.90;;;;;;5107522;27;20100;-64
2022/12/24 04:51:04;;;;;;;34.85;5.35;;;9.20;99.90;;;;;;5126282;27;20059;-64
2022/12/24 04:53:31;;;;;;;33.83;5.38;;;9.20;99.90;;;;;;5125544;27;20488;-64
2022/12/24 04:55:57;;;;;;;37.50;5.68;;;9.20;99.90;;;;;;5113250;27;20059;-64
2022/12/24 04:58:24;;;;;;;43.47;5.65;;;9.20;99.90;;;;;;5126644;27;20378;-64
2022/12/24 05:00:49;;;;;;;39.78;5.75;;;9.20;99.90;;;;;;5124440;27;20067;-64
2022/12/24 05:03:15;;;;;;;38.33;6.68;;;9.30;99.90;;;;;;5127515;27;20066;-64
2022/12/24 05:05:40;;;;;;;33.03;6.22;;;9.20;99.90;;;;;;5125826;27;20080;-64
2022/12/24 05:08:06;;;;;;;38.35;6.32;;;9.20;99.90;;;;;;5126693;27;20027;-64
2022/12/24 05:10:32;;;;;;;44.78;8.27;;;9.20;99.90;;;;;;5131728;27;20031;-65
2022/12/24 05:12:57;;;;;;;42.50;6.20;;;9.10;99.90;;;;;;5127718;27;20247;-64
2022/12/24 05:15:23;;;;;;;41.58;6.40;;;9.10;99.90;;;;;;5097762;28;20039;-64
2022/12/24 05:17:49;;;;;;;38.65;5.85;;;9.20;99.90;;;;;;5127929;27;20042;-65
2022/12/24 05:20:15;;;;;;;47.55;6.57;;;9.20;99.90;;;;;;5119764;27;20035;-64
2022/12/24 05:28:16;;;;;;;43.13;5.78;;;9.10;99.90;;;;;;5121178;27;20455;-64
2022/12/24 05:30:42;;;;;;;39.33;5.72;;;9.10;99.90;;;;;;5125489;27;20027;-65
2022/12/24 05:33:08;;;;;;;42.47;6.13;;;9.10;99.90;;;;;;5130574;27;20059;-65
2022/12/24 05:35:34;;;;;;;36.65;6.28;;;9.10;99.90;;;;;;5131126;27;20087;-65
2022/12/24 05:37:59;;;;;;;38.58;6.00;;;9.10;99.90;;;;;;5130278;27;20023;-64
2022/12/24 05:40:25;;;;;;;42.08;6.60;;;9.00;99.90;;;;;;5123627;27;20039;-62
2022/12/24 05:42:50;;;;;;;46.95;6.47;;;9.10;99.90;;;;;;5109412;28;20435;-65
2022/12/24 05:45:16;;;;;;;36.22;5.55;;;9.00;99.90;;;;;;5129100;27;20046;-65
2022/12/24 05:47:42;;;;;;;38.88;5.88;;;9.00;99.90;;;;;;5104693;27;20164;-65
2022/12/24 05:50:08;;;;;;;33.08;6.05;;;9.10;99.90;;;;;;5116757;27;20040;-63
2022/12/24 05:52:34;;;;;;;28.25;5.50;;;9.00;99.90;;;;;;5111017;27;20398;-64
2022/12/24 05:54:59;;;;;;;32.90;5.82;;;9.00;99.90;;;;;;5119372;27;20075;-64
2022/12/24 05:57:25;;;;;;;43.83;5.60;;;9.00;99.90;;;;;;5117027;27;20100;-65
2022/12/24 05:59:50;;;;;;;39.03;5.72;;;9.00;99.90;;;;;;5128682;27;20091;-65
2022/12/24 06:02:16;;;;;;;35.28;4.90;;;8.90;99.90;;;;;;5116902;27;20096;-65
2022/12/24 06:04:42;;;;;;;36.15;5.75;;;8.90;99.90;;;;;;5104517;28;20039;-63
2022/12/24 06:07:07;;;;;;;33.50;5.28;;;9.10;99.90;;;;;;5123126;27;20062;-65
2022/12/24 06:09:33;;;;;;;36.88;5.65;;;8.90;99.90;;;;;;5126783;28;20031;-65
2022/12/24 06:11:58;;;;;;;35.00;5.65;;;8.80;99.90;;;;;;5118386;28;20076;-64
2022/12/24 06:14:24;;;;;;;30.38;5.20;;;8.80;99.90;;;;;;5105973;28;20397;-64
2022/12/24 06:16:50;;;;;;;38.03;5.50;;;8.70;99.90;;;;;;5128235;28;20035;-64
2022/12/24 06:19:16;;;;;;;34.47;5.82;;;8.70;99.90;;;;;;5121956;28;20544;-63
2022/12/24 06:21:41;;;;;;;36.35;5.35;;;8.70;99.90;;;;;;5118575;28;20039;-64
2022/12/24 06:24:07;;;;;;;39.53;5.43;;;8.70;99.90;;;;;;5121528;27;20032;-64
2022/12/24 06:26:33;;;;;;;33.22;4.72;;;8.70;99.90;;;;;;5107692;28;20039;-64
2022/12/24 06:28:59;;;;;;;31.80;5.40;;;8.70;99.90;;;;;;5112304;27;20039;-65
2022/12/24 06:31:25;;;;;;;33.33;5.10;;;8.70;99.90;;;;;;5128336;27;20043;-64
2022/12/24 06:33:51;;;;;;;26.33;4.55;;;8.70;99.90;;;;;;5112977;27;20046;-63
2022/12/24 06:36:19;;;;;;;35.28;4.70;;;8.70;99.90;;;;;;5118645;27;20036;-64
2022/12/24 06:38:46;;;;;;;29.55;4.88;;;8.70;99.90;;;;;;5129180;27;20043;-65
2022/12/24 06:41:12;;;;;;;30.50;5.28;;;8.60;99.90;;;;;;5111452;27;20035;-64
2022/12/24 06:43:39;;;;;;;30.50;4.88;;;8.60;99.90;;;;;;5132229;27;20405;-64
2022/12/24 06:46:04;;;;;;;32.13;5.20;;;8.60;99.90;;;;;;5114603;27;20112;-65
2022/12/24 06:48:30;;;;;;;33.65;4.57;;;8.60;99.90;;;;;;5114821;27;20043;-64
2022/12/24 06:50:56;;;;;;;37.45;5.70;;;8.60;99.90;;;;;;5129505;27;20473;-65
2022/12/24 06:53:22;;;;;;;43.40;7.05;;;8.70;99.90;;;;;;5128950;27;20035;-64
2022/12/24 06:55:48;;;;;;;31.35;6.10;;;8.70;99.90;;;;;;5130665;27;20396;-64
2022/12/24 06:58:13;;;;;;;32.45;5.82;;;8.70;99.90;;;;;;5131808;27;20042;-64
2022/12/24 07:00:40;;;;;;;26.10;5.38;;;8.60;99.90;;;;;;5131536;27;20386;-64
2022/12/24 07:03:05;;;;;;;36.17;5.00;;;8.70;99.90;;;;;;5131626;27;20038;-64
2022/12/24 07:05:31;;;;;;;34.83;5.05;;;8.60;99.90;;;;;;5127455;27;20031;-64
2022/12/24 07:07:57;;;;;;;44.00;5.50;;;8.70;99.90;;;;;;5123160;27;20073;-65
2022/12/24 07:10:22;;;;;;;29.35;5.18;;;8.60;99.90;;;;;;5103963;28;20489;-64
2022/12/24 07:12:48;;;;;;;46.72;6.93;;;8.70;99.90;;;;;;5129045;27;20023;-64
2022/12/24 07:15:15;;;;;;;37.38;5.20;;;8.60;99.90;;;;;;5121708;27;20032;-63
2022/12/24 07:17:41;;;;;;;36.83;5.03;;;8.60;99.90;;;;;;5132813;27;20027;-64
2022/12/24 07:20:09;;;;;;;34.45;5.30;;;8.60;99.90;;;;;;5120447;27;20478;-65
2022/12/24 07:22:34;;;;;;;30.08;5.30;;;8.70;99.90;;;;;;5123056;27;20046;-64
2022/12/24 07:25:00;;;;;;;29.63;5.15;;;8.70;99.90;;;;;;5123461;27;20485;-64
2022/12/24 07:27:25;;;;;;;34.88;6.32;;;8.60;99.90;;;;;;5106542;27;20043;-64
2022/12/24 07:29:51;;;;;;;39.20;5.00;;;8.70;99.90;;;;;;5124719;27;20126;-64
2022/12/24 07:32:19;;;;;;;34.55;6.07;;;8.70;99.90;;;;;;5103841;28;20382;-64
2022/12/24 07:34:45;;;;;;;41.90;6.05;;;8.70;99.90;;;;;;5125017;27;20038;-64
2022/12/24 07:37:10;;;;;;;36.20;5.28;;;8.70;99.90;;;;;;5124243;27;20033;-63
2022/12/24 07:39:36;;;;;;;38.92;6.13;;;8.70;99.90;;;;;;5113431;27;20488;-64
2022/12/24 07:42:01;;;;;;;36.22;5.60;;;8.80;99.90;;;;;;5124774;27;20046;-64
2022/12/24 07:44:27;;;;;;;34.38;5.57;;;8.80;99.90;;;;;;5105620;27;20382;-67
2022/12/24 07:46:52;;;;;;;33.28;5.30;;;8.80;99.90;;;;;;5129819;27;20038;-63
2022/12/24 07:49:18;;;;;;;38.83;6.40;;;8.80;99.90;;;;;;5114710;27;20501;-65
2022/12/24 07:51:44;;;;;;;33.63;5.60;;;8.90;99.90;;;;;;5117983;27;20042;-65
2022/12/24 07:54:09;;;;;;;31.83;5.63;;;9.10;99.90;;;;;;5129276;27;20059;-65
2022/12/24 07:56:35;;;;;;;34.67;6.10;;;8.90;99.90;;;;;;5121599;27;20039;-64
2022/12/24 07:59:00;;;;;;;37.45;6.78;;;8.90;99.90;;;;;;5128549;27;20537;-64
2022/12/24 08:01:26;;;;;;;48.05;6.80;;;8.90;99.90;;;;;;5122713;27;20087;-64
2022/12/24 08:03:53;;;;;;;44.05;6.35;;;8.90;99.90;;;;;;5129374;27;20030;-64
2022/12/24 08:06:19;;;;;;;41.65;5.90;;;9.00;99.90;;;;;;5128963;27;20496;-65
2022/12/24 08:08:45;;;;;;;41.40;6.40;;;9.00;99.90;;;;;;5115379;27;20379;-64
2022/12/24 08:11:11;;;;;;;39.13;6.80;;;9.00;99.90;;;;;;5126271;27;20031;-64
2022/12/24 08:13:37;;;;;;;44.92;6.25;;;9.00;99.90;;;;;;5131275;27;20035;-65
2022/12/24 08:16:04;;;;;;;34.35;5.80;;;9.00;99.90;;;;;;5130749;27;20027;-65
2022/12/24 08:18:29;;;;;;;39.97;6.82;;;9.00;99.90;;;;;;5131546;27;20382;-63
2022/12/24 08:20:55;;;;;;;47.28;6.78;;;9.10;99.90;;;;;;5125461;27;20038;-65
2022/12/24 08:23:22;;;;;;;38.30;5.65;;;9.10;99.90;;;;;;5113143;27;20039;-64
2022/12/24 08:25:48;;;;;;;38.30;6.30;;;9.00;99.90;;;;;;5110018;27;20144;-63
2022/12/24 08:28:15;;;;;;;46.97;8.02;;;9.10;99.90;;;;;;5131952;27;20067;-65
2022/12/24 08:30:44;;;;;;;39.17;6.32;;;9.10;99.90;;;;;;5127340;27;20075;-64
2022/12/24 08:33:09;;;;;;;38.22;6.80;;;9.10;99.90;;;;;;5112522;27;20031;-65
2022/12/24 08:35:35;;;;;;;41.53;6.53;;;9.10;99.90;;;;;;5129304;27;20457;-65
2022/12/24 08:38:01;;;;;;;37.30;6.80;;;9.10;99.90;;;;;;5131045;27;20068;-65
2022/12/24 08:40:27;;;;;;;39.92;7.00;;;9.10;99.90;;;;;;5112931;27;20135;-63
2022/12/24 08:42:53;;;;;;;42.33;6.90;;;9.20;99.90;;;;;;5112669;27;20047;-64
2022/12/24 08:45:19;;;;;;;43.05;7.88;;;9.20;99.90;;;;;;5130772;27;20538;-64
2022/12/24 08:47:45;;;;;;;42.85;7.03;;;9.20;99.90;;;;;;5129037;27;20039;-65
2022/12/24 08:50:11;;;;;;;42.90;6.60;;;9.20;99.90;;;;;;5131530;27;20109;-63
2022/12/24 08:52:36;;;;;;;44.28;7.38;;;9.20;99.90;;;;;;5127100;27;20080;-64
2022/12/24 08:55:02;;;;;;;38.75;6.70;;;9.30;99.90;;;;;;5105682;28;20460;-65
2022/12/24 08:57:28;;;;;;;41.72;7.22;;;9.30;99.90;;;;;;5104776;27;20047;-63
2022/12/24 08:59:54;;;;;;;36.20;7.03;;;9.30;99.90;;;;;;5118004;27;20478;-63
2022/12/24 09:02:20;;;;;;;30.00;6.07;;;9.30;99.90;;;;;;5105422;27;20039;-63
2022/12/24 09:04:45;;;;;;;39.03;6.60;;;9.30;99.90;;;;;;5109785;28;20396;-63
2022/12/24 09:07:11;;;;;;;34.45;6.63;;;9.40;99.90;;;;;;5123763;27;20542;-64
2022/12/24 09:09:37;;;;;;;42.92;6.57;;;9.50;99.90;;;;;;5116433;27;20542;-62
2022/12/24 09:12:06;;;;;;;37.83;5.88;;;9.50;99.90;;;;;;5121425;27;20035;-63
2022/12/24 09:14:32;;;;;;;35.00;6.43;;;9.50;99.90;;;;;;5131361;27;20036;-62
2022/12/24 09:16:58;;;;;;;39.40;6.35;;;9.50;99.90;;;;;;5131227;27;20031;-63
2022/12/24 09:19:24;;;;;;;37.05;6.45;;;9.50;99.90;;;;;;5125921;27;20093;-63
2022/12/24 09:21:49;;;;;;;45.05;7.28;;;9.50;99.90;;;;;;5104248;27;20089;-65
2022/12/24 09:24:15;;;;;;;42.28;6.68;;;9.50;99.90;;;;;;5128314;27;20042;-63
2022/12/24 09:26:41;;;;;;;33.53;6.22;;;9.50;99.90;;;;;;5123515;27;20027;-63
2022/12/24 09:29:07;;;;;;;44.78;7.20;;;9.50;99.90;;;;;;5113466;27;20032;-62
2022/12/24 09:31:33;;;;;;;31.17;6.18;;;9.50;99.90;;;;;;5120552;27;20043;-65
2022/12/24 09:33:58;;;;;;;40.03;6.45;;;9.50;99.90;;;;;;5100751;27;20050;-63
2022/12/24 09:36:24;;;;;;;37.50;5.68;;;9.50;99.90;;;;;;5121883;27;20031;-63
2022/12/24 09:38:50;;;;;;;35.97;6.47;;;9.60;99.90;;;;;;5124667;27;20121;-64
2022/12/24 09:41:27;;;;;;;31.38;6.18;;;9.60;99.90;;;;;;5100694;28;20406;-66
2022/12/24 09:44:21;;;;;;;36.80;6.10;;;9.70;99.90;;;;;;5107008;27;20042;-63
2022/12/24 09:46:50;;;;;;;37.22;6.15;;;9.60;99.90;;;;;;5107043;27;20039;-64
2022/12/24 09:49:22;;;;;;;38.28;7.60;;;9.60;99.90;;;;;;5106246;27;20043;-67
2022/12/24 09:52:05;;;;;;;36.78;5.93;;;9.50;99.90;;;;;;5103072;28;20032;-66
2022/12/24 09:54:44;;;;;;;36.50;5.30;;;9.50;99.90;;;;;;5121445;27;20027;-64
2022/12/24 09:57:26;;;;;;;30.45;5.50;;;9.50;99.90;;;;;;5120928;27;20084;-67
2022/12/24 09:59:52;;;;;;;33.25;6.18;;;9.50;99.90;;;;;;5105595;27;20039;-66
2022/12/24 10:02:19;;;;;;;32.92;5.57;;;9.50;99.90;;;;;;5118431;27;20103;-65
2022/12/24 10:04:46;;;;;;;36.67;5.65;;;9.50;99.90;;;;;;5125937;27;20068;-64
2022/12/24 10:07:33;;;;;;;29.45;5.80;;;9.50;99.90;;;;;;5124060;27;20126;-64
2022/12/24 10:10:41;;;;;;;37.15;6.38;;;9.50;99.90;;;;;;5102809;28;20047;-63
2022/12/24 10:13:39;;;;;;;35.13;5.55;;;9.50;99.90;;;;;;5085911;28;20046;-63
2022/12/24 10:16:25;;;;;;;36.13;6.97;;;9.50;99.90;;;;;;5119723;28;20047;-65
2022/12/24 10:19:09;;;;;;;40.85;7.03;;;9.60;99.90;;;;;;5102632;28;20047;-66
2022/12/24 10:22:19;;;;;;;39.78;6.90;;;9.60;99.90;;;;;;5125648;28;20098;-65
2022/12/24 10:24:52;;;;;;;38.92;7.13;;;9.60;99.90;;;;;;5090399;28;20134;-66
2022/12/24 10:27:23;;;;;;;33.72;5.45;;;9.60;99.90;;;;;;5128334;28;20043;-63
2022/12/24 10:29:55;;;;;;;33.13;5.80;;;9.70;99.90;;;;;;5125745;28;20043;-64
2022/12/24 10:32:24;;;;;;;36.33;5.38;;;9.70;99.90;;;;;;5125661;28;20060;-63
2022/12/24 10:35:15;;;;;;;39.20;6.28;;;9.70;99.90;;;;;;5124844;28;20036;-64
2022/12/24 10:37:43;;;;;;;39.38;6.75;;;9.70;99.90;;;;;;5109222;28;20073;-64
2022/12/24 10:40:33;;;;;;;34.95;5.93;;;9.80;99.90;;;;;;5104762;28;20159;-63
2022/12/24 10:42:59;;;;;;;43.22;7.30;;;9.80;99.90;;;;;;5119401;28;20065;-63
2022/12/24 10:45:34;;;;;;;34.08;5.65;;;9.80;99.90;;;;;;5122984;28;20035;-64
2022/12/24 10:48:06;;;;;;;42.55;6.60;;;9.80;99.90;;;;;;5118166;28;20031;-64
2022/12/24 10:50:39;;;;;;;44.58;7.30;;;9.90;99.90;;;;;;5122267;28;20115;-65
2022/12/24 10:53:27;;;;;;;36.88;6.68;;;9.90;99.90;;;;;;5106865;28;20127;-64
2022/12/24 10:56:05;;;;;;;50.17;7.18;;;9.90;99.90;;;;;;5116488;28;20027;-63
2022/12/24 10:58:31;;;;;;;36.95;6.43;;;9.90;99.90;;;;;;5121382;27;20027;-64
2022/12/24 11:00:57;;;;;;;44.17;6.50;;;9.90;99.90;;;;;;5118544;28;20027;-66
2022/12/24 11:03:37;;;;;;;42.63;7.38;;;9.90;99.90;;;;;;5106910;28;20035;-64
2022/12/24 11:06:12;;;;;;;46.88;6.22;;;9.90;99.90;;;;;;5100153;28;20031;-64
2022/12/24 11:08:40;;;;;;;43.60;8.15;;;9.90;99.90;;;;;;5119116;28;20034;-63
2022/12/24 11:11:11;;;;;;;38.78;6.38;;;9.90;99.90;;;;;;5120303;27;20036;-63
2022/12/24 11:13:42;;;;;;;39.85;6.88;;;9.90;99.90;;;;;;5106922;27;20047;-64
2022/12/24 11:16:25;;;;;;;39.83;5.80;;;9.90;99.90;;;;;;5100875;27;20043;-62
2022/12/24 11:18:59;;;;;;;34.88;6.40;;;9.80;99.90;;;;;;5102826;28;20277;-65
2022/12/24 11:21:38;;;;;;;35.35;5.80;;;9.90;99.90;;;;;;5103043;27;20039;-64
2022/12/24 11:24:07;;;;;;;38.60;6.13;;;9.90;99.90;;;;;;5120711;27;20051;-64
2022/12/24 11:26:34;;;;;;;32.60;5.82;;;9.90;99.90;;;;;;5127582;27;20431;-63
2022/12/24 11:29:18;;;;;;;35.78;6.03;;;9.90;99.90;;;;;;5112027;27;20039;-64
2022/12/24 11:31:45;;;;;;;40.47;5.90;;;9.90;99.90;;;;;;5112788;27;20039;-64
2022/12/24 11:34:30;;;;;;;44.00;6.30;;;9.90;99.90;;;;;;5131977;27;20034;-63
2022/12/24 11:37:16;;;;;;;46.10;6.60;;;9.90;99.90;;;;;;5112180;27;20550;-64
2022/12/24 11:39:53;;;;;;;46.90;7.00;;;9.90;99.90;;;;;;5129652;27;20035;-64
2022/12/24 11:42:32;;;;;;;40.67;6.05;;;9.90;99.90;;;;;;5114561;27;20473;-64
2022/12/24 11:45:01;;;;;;;40.63;6.55;;;9.90;99.90;;;;;;5130850;27;20041;-63
2022/12/24 11:47:34;;;;;;;33.08;5.95;;;10.00;99.90;;;;;;5131060;27;20047;-65
2022/12/24 11:50:22;;;;;;;38.20;6.32;;;10.00;99.90;;;;;;5109366;27;20039;-63
2022/12/24 11:53:13;;;;;;;37.25;5.70;;;10.00;99.90;;;;;;5126456;27;20027;-64
2022/12/24 11:55:51;;;;;;;36.65;6.50;;;9.90;99.90;;;;;;5115785;27;20047;-64
2022/12/24 11:58:35;;;;;;;40.30;6.70;;;9.90;99.90;;;;;;5129268;27;20118;-63
2022/12/24 12:01:09;;;;;;;39.67;5.82;;;9.90;99.90;;;;;;5110156;27;20085;-64
2022/12/24 12:03:46;;;;;;;46.00;6.50;;;9.90;99.90;;;;;;5109418;27;20035;-64
2022/12/24 12:06:30;;;;;;;38.47;5.63;;;9.90;99.90;;;;;;5128031;27;20047;-63
2022/12/24 12:09:01;;;;;;;40.50;6.47;;;9.90;99.90;;;;;;5120068;27;20510;-63
2022/12/24 12:11:28;;;;;;;43.40;6.25;;;9.90;99.90;;;;;;5125941;27;20039;-64
2022/12/24 12:13:58;;;;;;;37.72;6.22;;;10.00;99.90;;;;;;5111663;27;20520;-65
2022/12/24 12:16:59;;;;;;;32.95;5.20;;;10.10;99.90;;;;;;5127825;27;20058;-63
2022/12/24 12:19:24;;;;;;;33.05;5.78;;;10.00;99.90;;;;;;5131719;27;20039;-64
2022/12/24 12:21:51;;;;;;;32.38;5.57;;;10.10;99.90;;;;;;5127614;27;20122;-63
2022/12/24 12:24:23;;;;;;;28.85;5.40;;;10.10;99.90;;;;;;5122821;27;20059;-66
2022/12/24 12:27:03;;;;;;;33.42;6.10;;;10.10;99.90;;;;;;5125390;27;20393;-63
2022/12/24 12:29:36;;;;;;;30.45;5.22;;;10.30;99.90;;;;;;5128055;27;20039;-65
2022/12/24 12:32:07;;;;;;;31.73;6.88;;;10.20;99.90;;;;;;5128236;27;20043;-63
2022/12/24 12:34:54;;;;;;;27.02;5.50;;;10.20;99.90;;;;;;5123554;27;20044;-63
2022/12/24 12:37:31;;;;;;;29.45;7.10;;;10.30;99.90;;;;;;5127703;27;20039;-64
2022/12/24 12:39:57;;;;;;;28.63;4.70;;;10.30;99.90;;;;;;5126254;27;20441;-65
2022/12/24 12:42:31;;;;;;;30.80;5.00;;;10.30;99.90;;;;;;5126564;27;20123;-64
2022/12/24 12:45:18;;;;;;;27.25;5.07;;;10.30;99.90;;;;;;5108655;27;20161;-66
2022/12/24 12:47:53;;;;;;;25.65;4.75;;;10.20;99.90;;;;;;5092474;27;20043;-65
2022/12/24 12:50:35;;;;;;;31.02;5.22;;;10.20;99.90;;;;;;5129146;27;20041;-65
2022/12/24 12:53:20;;;;;;;28.65;5.35;;;10.20;99.90;;;;;;5106568;27;20049;-63
2022/12/24 12:56:05;;;;;;;24.48;4.97;;;10.10;99.90;;;;;;5107644;27;20031;-65
2022/12/24 12:58:45;;;;;;;27.75;3.97;;;10.10;99.90;;;;;;5109017;27;20092;-63
2022/12/24 13:01:29;;;;;;;23.33;4.25;;;10.10;99.90;;;;;;5110033;27;20035;-64
2022/12/24 13:04:29;;;;;;;25.45;4.25;;;10.00;99.90;;;;;;5107268;27;20035;-64
2022/12/24 13:07:20;;;;;;;28.17;4.07;;;10.00;99.90;;;;;;5112911;27;20092;-63
2022/12/24 13:10:19;;;;;;;26.77;4.05;;;10.10;99.90;;;;;;5118331;27;20122;-64
2022/12/24 13:12:44;;;;;;;21.52;3.90;;;10.00;99.90;;;;;;5106639;27;20047;-66